createdAt,value
2022-12-17T00:01:06.989Z,24.57
2022-12-17T00:03:52.359Z,23.20
2022-12-17T00:06:38.179Z,19.87
2022-12-17T00:09:23.473Z,19.90
2022-12-17T00:12:11.474Z,16.47
2022-12-17T00:14:56.841Z,22.17
2022-12-17T00:17:43.446Z,21.20
2022-12-17T00:20:29.007Z,22.63
2022-12-17T00:23:18.461Z,22.23
2022-12-17T00:26:05.649Z,21.33
2022-12-17T00:28:51.193Z,21.23
2022-12-17T00:31:37.313Z,22.97
2022-12-17T00:34:24.119Z,22.07
2022-12-17T00:37:10.120Z,23.03
2022-12-17T00:39:59.259Z,23.67
2022-12-17T00:42:45.399Z,23.93
2022-12-17T00:45:31.338Z,25.23
2022-12-17T00:48:16.460Z,24.00
2022-12-17T00:51:03.117Z,23.63
2022-12-17T00:53:48.235Z,25.70
2022-12-17T00:56:33.625Z,23.13
2022-12-17T00:59:18.814Z,24.77
2022-12-17T01:02:04.371Z,24.33
2022-12-17T01:04:50.100Z,26.33
2022-12-17T01:07:36.655Z,20.93
2022-12-17T01:10:22.336Z,19.27
2022-12-17T01:13:08.641Z,22.93
2022-12-17T01:15:53.883Z,24.40
2022-12-17T01:18:42.120Z,25.43
2022-12-17T01:21:27.244Z,25.50
2022-12-17T01:24:13.792Z,26.47
2022-12-17T01:26:59.029Z,24.93
2022-12-17T01:29:44.278Z,24.23
2022-12-17T01:32:29.804Z,26.13
2022-12-17T01:35:15.145Z,25.53
2022-12-17T01:38:01.433Z,29.60
2022-12-17T01:40:50.361Z,28.33
2022-12-17T01:43:50.479Z,25.97
2022-12-17T01:46:36.086Z,25.77
2022-12-17T01:49:21.944Z,27.63
2022-12-17T01:52:10.102Z,26.43
2022-12-17T01:54:55.936Z,25.27
2022-12-17T01:57:43.907Z,26.97
2022-12-17T02:00:28.223Z,28.50
2022-12-17T02:03:13.828Z,26.37
2022-12-17T02:06:03.325Z,25.07
2022-12-17T02:08:57.255Z,28.40
2022-12-17T02:11:47.617Z,26.53
2022-12-17T02:14:41.202Z,25.80
2022-12-17T02:17:33.480Z,28.23
2022-12-17T02:20:31.228Z,27.03
2022-12-17T02:23:30.886Z,26.20
2022-12-17T02:26:21.181Z,24.87
2022-12-17T02:29:10.396Z,26.73
2022-12-17T02:32:03.823Z,28.33
2022-12-17T02:34:49.068Z,25.37
2022-12-17T02:37:34.563Z,27.03
2022-12-17T02:40:19.827Z,25.83
2022-12-17T02:43:07.695Z,25.30
2022-12-17T02:45:54.783Z,25.30
2022-12-17T02:48:40.648Z,25.13
2022-12-17T02:51:25.737Z,23.37
2022-12-17T02:54:12.336Z,21.37
2022-12-17T02:56:57.435Z,23.33
2022-12-17T02:59:43.192Z,23.13
2022-12-17T03:02:30.238Z,22.90
2022-12-17T03:05:43.483Z,20.20
2022-12-17T03:08:21.057Z,20.80
2022-12-17T03:11:06.268Z,21.57
2022-12-17T03:13:51.696Z,22.53
2022-12-17T03:16:38.287Z,21.90
2022-12-17T03:19:25.226Z,22.03
2022-12-17T03:22:10.446Z,19.90
2022-12-17T03:24:56.156Z,23.53
2022-12-17T03:27:41.241Z,22.00
2022-12-17T03:30:27.532Z,22.27
2022-12-17T03:33:13.901Z,23.50
2022-12-17T03:36:00.455Z,24.03
2022-12-17T03:38:47.269Z,21.43
2022-12-17T03:41:32.323Z,22.77
2022-12-17T03:44:17.734Z,24.60
2022-12-17T03:47:02.958Z,23.27
2022-12-17T03:49:49.703Z,23.47
2022-12-17T03:52:36.173Z,21.63
2022-12-17T03:55:21.867Z,21.87
2022-12-17T03:58:07.090Z,20.87
2022-12-17T04:00:52.588Z,20.97
2022-12-17T04:03:38.375Z,21.73
2022-12-17T04:06:24.119Z,18.97
2022-12-17T04:09:10.600Z,22.00
2022-12-17T04:11:55.746Z,21.17
2022-12-17T04:14:41.030Z,19.27
2022-12-17T04:17:26.106Z,16.77
2022-12-17T04:20:11.379Z,17.47
2022-12-17T04:22:56.996Z,21.10
2022-12-17T04:25:43.440Z,19.73
2022-12-17T04:28:28.834Z,19.47
2022-12-17T04:31:14.387Z,18.87
2022-12-17T04:33:59.637Z,17.10
2022-12-17T04:36:44.877Z,18.97
2022-12-17T04:39:30.196Z,18.17
2022-12-17T04:42:16.875Z,17.10
2022-12-17T04:45:02.065Z,19.00
2022-12-17T04:47:47.395Z,19.57
2022-12-17T04:50:32.802Z,19.30
2022-12-17T04:53:18.842Z,19.17
2022-12-17T04:56:04.540Z,17.33
2022-12-17T04:58:50.197Z,17.60
2022-12-17T05:01:35.664Z,19.37
2022-12-17T05:04:20.889Z,16.20
2022-12-17T05:07:06.123Z,18.37
2022-12-17T05:09:51.245Z,16.60
2022-12-17T05:12:37.491Z,17.17
2022-12-17T05:15:25.408Z,16.93
2022-12-17T05:18:11.254Z,18.20
2022-12-17T05:20:56.461Z,17.13
2022-12-17T05:23:41.904Z,17.70
2022-12-17T05:26:37.902Z,16.60
2022-12-17T05:29:23.142Z,14.77
2022-12-17T05:32:09.872Z,14.57
2022-12-17T05:34:55.016Z,14.40
2022-12-17T05:37:42.410Z,14.30
2022-12-17T05:40:28.921Z,15.03
2022-12-17T05:43:15.225Z,14.13
2022-12-17T05:46:01.218Z,14.30
2022-12-17T05:48:48.778Z,13.37
2022-12-17T05:51:38.456Z,10.33
2022-12-17T05:54:24.804Z,8.17
2022-12-17T05:57:10.003Z,11.37
2022-12-17T05:59:55.801Z,15.03
2022-12-17T06:02:41.440Z,14.07
2022-12-17T06:05:28.675Z,13.17
2022-12-17T06:08:20.989Z,12.97
2022-12-17T06:11:07.769Z,14.83
2022-12-17T06:13:53.263Z,11.70
2022-12-17T06:16:39.056Z,12.97
2022-12-17T06:19:24.273Z,12.90
2022-12-17T06:22:10.756Z,13.93
2022-12-17T06:24:55.980Z,12.67
2022-12-17T06:27:41.239Z,13.23
2022-12-17T06:30:27.400Z,13.47
2022-12-17T06:33:21.997Z,11.87
2022-12-17T06:36:07.424Z,12.63
2022-12-17T06:38:53.943Z,13.53
2022-12-17T06:41:40.220Z,14.33
2022-12-17T06:44:27.469Z,12.30
2022-12-17T06:47:12.850Z,11.73
2022-12-17T06:50:01.466Z,11.13
2022-12-17T06:52:47.562Z,12.17
2022-12-17T06:55:34.154Z,13.37
2022-12-17T06:58:19.750Z,13.83
2022-12-17T07:01:05.804Z,12.87
2022-12-17T07:03:51.392Z,11.83
2022-12-17T07:06:36.633Z,13.27
2022-12-17T07:09:22.526Z,11.70
2022-12-17T07:12:09.429Z,13.43
2022-12-17T07:14:55.306Z,14.10
2022-12-17T07:17:42.360Z,13.33
2022-12-17T07:20:29.042Z,13.80
2022-12-17T07:23:14.802Z,13.97
2022-12-17T07:26:08.792Z,12.30
2022-12-17T07:28:55.673Z,13.03
2022-12-17T07:31:41.267Z,12.13
2022-12-17T07:34:26.671Z,14.10
2022-12-17T07:37:14.943Z,13.10
2022-12-17T07:40:04.203Z,12.50
2022-12-17T07:42:51.656Z,13.87
2022-12-17T07:45:38.405Z,11.07
2022-12-17T07:48:24.349Z,11.60
2022-12-17T07:51:10.554Z,12.70
2022-12-17T07:53:56.198Z,13.37
2022-12-17T07:56:42.898Z,14.87
2022-12-17T07:59:28.127Z,14.57
2022-12-17T08:02:15.122Z,15.07
2022-12-17T08:05:00.664Z,12.57
2022-12-17T08:07:45.863Z,11.63
2022-12-17T08:10:27.527Z,12.57
2022-12-17T08:13:14.360Z,12.90
2022-12-17T08:16:00.683Z,13.67
2022-12-17T08:18:47.687Z,13.20
2022-12-17T08:21:33.071Z,13.13
2022-12-17T08:24:18.260Z,13.23
2022-12-17T08:27:03.467Z,13.17
2022-12-17T08:29:48.641Z,13.63
2022-12-17T08:32:34.604Z,11.67
2022-12-17T08:35:21.248Z,13.07
2022-12-17T08:38:06.544Z,13.13
2022-12-17T08:40:54.277Z,13.37
2022-12-17T08:43:36.392Z,15.23
2022-12-17T08:46:22.253Z,11.80
2022-12-17T08:49:15.982Z,13.77
2022-12-17T08:52:02.624Z,12.10
2022-12-17T08:54:47.911Z,12.20
2022-12-17T08:57:33.048Z,11.63
2022-12-17T09:00:18.857Z,13.30
2022-12-17T09:03:04.196Z,14.57
2022-12-17T09:05:58.084Z,13.23
2022-12-17T09:08:44.782Z,13.27
2022-12-17T09:11:30.121Z,14.83
2022-12-17T09:14:15.761Z,12.83
2022-12-17T09:17:01.570Z,14.90
2022-12-17T09:19:46.831Z,12.63
2022-12-17T09:22:31.862Z,12.43
2022-12-17T09:25:18.347Z,14.03
2022-12-17T09:28:03.822Z,13.53
2022-12-17T09:30:49.417Z,13.83
2022-12-17T09:33:35.664Z,14.67
2022-12-17T09:36:22.187Z,14.90
2022-12-17T09:39:07.536Z,14.63
2022-12-17T09:42:03.517Z,14.50
2022-12-17T09:44:57.762Z,12.57
2022-12-17T09:47:55.040Z,14.10
2022-12-17T09:50:41.461Z,12.60
2022-12-17T09:53:37.254Z,10.23
2022-12-17T09:56:23.342Z,11.83
2022-12-17T09:59:09.904Z,14.30
2022-12-17T10:01:55.508Z,12.60
2022-12-17T10:04:51.258Z,13.13
2022-12-17T10:07:41.026Z,13.47
2022-12-17T10:10:38.285Z,14.37
2022-12-17T10:13:30.298Z,12.00
2022-12-17T10:16:17.400Z,14.80
2022-12-17T10:19:03.821Z,11.70
2022-12-17T10:21:50.014Z,12.23
2022-12-17T10:24:35.078Z,14.27
2022-12-17T10:27:27.857Z,13.83
2022-12-17T10:30:12.923Z,13.03
2022-12-17T10:33:00.512Z,15.83
2022-12-17T10:35:54.438Z,13.93
2022-12-17T10:38:41.208Z,15.37
2022-12-17T10:41:39.156Z,15.67
2022-12-17T10:44:39.032Z,13.90
2022-12-17T10:47:30.206Z,14.57
2022-12-17T10:50:18.210Z,16.30
2022-12-17T10:53:05.090Z,13.80
2022-12-17T10:55:52.346Z,15.13
2022-12-17T10:58:39.984Z,15.30
2022-12-17T11:01:28.586Z,13.50
2022-12-17T11:04:15.018Z,17.33
2022-12-17T11:07:04.931Z,15.50
2022-12-17T11:09:57.668Z,18.40
2022-12-17T11:12:50.220Z,13.80
2022-12-17T11:15:43.139Z,16.17
2022-12-17T11:18:35.629Z,14.10
2022-12-17T11:21:26.579Z,14.23
2022-12-17T11:24:22.047Z,11.47
2022-12-17T11:27:12.151Z,13.17
2022-12-17T11:29:57.349Z,10.70
2022-12-17T11:33:04.609Z,11.37
2022-12-17T11:36:00.830Z,14.80
2022-12-17T11:39:07.042Z,12.93
2022-12-17T11:42:09.500Z,11.30
2022-12-17T11:45:08.439Z,8.37
2022-12-17T11:48:03.276Z,11.10
2022-12-17T11:50:56.767Z,9.40
2022-12-17T11:54:05.369Z,11.20
2022-12-17T11:56:58.313Z,13.10
2022-12-17T12:00:04.380Z,12.47
2022-12-17T12:03:10.397Z,12.00
2022-12-17T12:06:05.427Z,11.33
2022-12-17T12:08:55.889Z,12.07
2022-12-17T12:11:51.239Z,11.17
2022-12-17T12:14:48.201Z,10.80
2022-12-17T12:17:48.595Z,9.53
2022-12-17T12:20:46.300Z,11.37
2022-12-17T12:23:41.702Z,9.40
2022-12-17T12:26:32.489Z,10.93
2022-12-17T12:29:26.887Z,13.70
2022-12-17T12:32:19.505Z,10.87
2022-12-17T12:35:05.388Z,9.17
2022-12-17T12:37:53.006Z,10.17
2022-12-17T12:40:59.212Z,10.97
2022-12-17T12:43:48.545Z,11.90
2022-12-17T12:46:38.759Z,7.77
2022-12-17T12:49:35.072Z,10.40
2022-12-17T12:52:19.507Z,10.73
2022-12-17T12:55:13.261Z,10.57
2022-12-17T12:58:02.153Z,10.60
2022-12-17T13:00:53.015Z,11.43
2022-12-17T13:03:46.960Z,8.90
2022-12-17T13:06:41.576Z,9.60
2022-12-17T13:09:22.442Z,9.07
2022-12-17T13:11:52.085Z,8.73
2022-12-17T13:14:23.760Z,9.47
2022-12-17T13:16:55.642Z,8.60
2022-12-17T13:19:36.589Z,8.07
2022-12-17T13:22:33.482Z,7.43
2022-12-17T13:25:17.280Z,7.97
2022-12-17T13:27:45.474Z,8.00
2022-12-17T13:30:22.371Z,10.37
2022-12-17T13:33:02.855Z,7.63
2022-12-17T13:35:38.568Z,6.03
2022-12-17T13:38:17.875Z,8.40
2022-12-17T13:40:50.730Z,8.40
2022-12-17T13:43:21.750Z,9.47
2022-12-17T13:45:51.662Z,9.70
2022-12-17T13:48:25.116Z,8.80
2022-12-17T13:50:58.019Z,9.87
2022-12-17T13:53:28.150Z,10.90
2022-12-17T13:55:58.357Z,9.50
2022-12-17T13:58:28.747Z,9.67
2022-12-17T14:01:15.671Z,10.13
2022-12-17T14:04:05.660Z,10.27
2022-12-17T14:06:37.518Z,11.07
2022-12-17T14:09:08.363Z,9.17
2022-12-17T14:11:56.342Z,10.80
2022-12-17T14:14:30.004Z,10.60
2022-12-17T14:16:57.874Z,8.40
2022-12-17T14:19:26.435Z,10.37
2022-12-17T14:21:54.945Z,8.63
2022-12-17T14:24:29.055Z,8.57
2022-12-17T14:26:58.884Z,10.57
2022-12-17T14:29:28.801Z,9.87
2022-12-17T14:31:58.237Z,8.90
2022-12-17T14:34:26.347Z,11.57
2022-12-17T14:36:57.650Z,11.40
2022-12-17T14:39:28.945Z,11.17
2022-12-17T14:42:16.779Z,10.27
2022-12-17T14:44:55.845Z,11.07
2022-12-17T14:47:25.823Z,10.10
2022-12-17T14:49:57.562Z,11.10
2022-12-17T14:52:35.492Z,10.83
2022-12-17T14:55:27.296Z,12.10
2022-12-17T14:58:09.291Z,13.50
2022-12-17T15:00:39.076Z,11.03
2022-12-17T15:03:07.024Z,10.10
2022-12-17T15:05:36.223Z,11.77
2022-12-17T15:08:05.476Z,10.33
2022-12-17T15:10:34.536Z,10.60
2022-12-17T15:13:02.416Z,11.27
2022-12-17T15:15:30.106Z,10.70
2022-12-17T15:17:57.792Z,10.40
2022-12-17T15:20:25.422Z,11.37
2022-12-17T15:22:53.140Z,13.00
2022-12-17T15:25:21.141Z,9.73
2022-12-17T15:27:50.343Z,11.53
2022-12-17T15:30:19.060Z,11.90
2022-12-17T15:32:47.039Z,11.47
2022-12-17T15:35:15.403Z,11.87
2022-12-17T15:37:43.063Z,10.57
2022-12-17T15:40:11.961Z,12.53
2022-12-17T15:42:59.181Z,12.63
2022-12-17T15:45:33.021Z,12.87
2022-12-17T15:48:00.793Z,14.20
2022-12-17T15:50:30.073Z,14.87
2022-12-17T15:52:57.771Z,13.20
2022-12-17T15:55:25.447Z,13.67
2022-12-17T15:57:53.118Z,14.57
2022-12-17T16:00:20.836Z,14.43
2022-12-17T16:02:50.165Z,20.07
2022-12-17T16:05:19.332Z,17.93
2022-12-17T16:07:47.388Z,13.30
2022-12-17T16:10:15.684Z,15.70
2022-12-17T16:12:43.719Z,14.90
2022-12-17T16:15:13.432Z,13.77
2022-12-17T16:17:41.121Z,13.13
2022-12-17T16:20:11.574Z,15.57
2022-12-17T16:22:39.303Z,13.07
2022-12-17T16:25:07.576Z,14.00
2022-12-17T16:27:35.313Z,11.13
2022-12-17T16:30:04.221Z,14.17
2022-12-17T16:32:36.682Z,13.33
2022-12-17T16:35:05.773Z,13.63
2022-12-17T16:37:34.822Z,12.03
2022-12-17T16:40:02.623Z,13.87
2022-12-17T16:42:30.605Z,14.57
2022-12-17T16:44:58.279Z,14.27
2022-12-17T16:47:26.160Z,14.53
2022-12-17T16:49:53.837Z,13.80
2022-12-17T16:52:21.537Z,11.50
2022-12-17T16:54:50.640Z,12.00
2022-12-17T16:57:18.457Z,12.67
2022-12-17T16:59:46.413Z,12.30
2022-12-17T17:02:16.197Z,12.60
2022-12-17T17:04:44.112Z,15.40
2022-12-17T17:07:11.891Z,14.00
2022-12-17T17:09:40.127Z,15.00
2022-12-17T17:12:11.399Z,15.93
2022-12-17T17:14:40.209Z,15.90
2022-12-17T17:17:08.186Z,13.50
2022-12-17T17:19:36.000Z,13.37
2022-12-17T17:22:03.738Z,14.87
2022-12-17T17:24:31.462Z,14.07
2022-12-17T17:26:59.542Z,14.70
2022-12-17T17:29:28.705Z,17.97
2022-12-17T17:32:13.533Z,15.47
2022-12-17T17:34:42.063Z,15.60
2022-12-17T17:37:10.097Z,13.07
2022-12-17T17:39:38.210Z,14.80
2022-12-17T17:42:06.486Z,14.03
2022-12-17T17:44:35.835Z,13.77
2022-12-17T17:47:03.631Z,15.17
2022-12-17T17:49:31.741Z,14.23
2022-12-17T17:52:09.428Z,14.23
2022-12-17T17:54:38.152Z,14.67
2022-12-17T17:57:05.985Z,13.97
2022-12-17T17:59:35.072Z,14.53
2022-12-17T18:02:03.881Z,15.00
2022-12-17T18:04:32.799Z,14.17
2022-12-17T18:09:48.135Z,11.97
2022-12-17T18:12:33.850Z,14.23
2022-12-17T18:15:14.133Z,13.90
2022-12-17T18:17:43.115Z,17.53
2022-12-17T18:20:11.866Z,14.70
2022-12-17T18:22:39.600Z,14.60
2022-12-17T18:25:07.527Z,11.73
2022-12-17T18:27:35.254Z,16.73
2022-12-17T18:30:05.300Z,14.97
2022-12-17T18:32:32.975Z,18.57
2022-12-17T18:35:00.733Z,16.47
2022-12-17T18:37:28.544Z,14.77
2022-12-17T18:39:56.247Z,16.33
2022-12-17T18:42:41.782Z,16.50
2022-12-17T18:45:11.042Z,17.77
2022-12-17T18:47:38.853Z,14.90
2022-12-17T18:50:07.731Z,14.63
2022-12-17T18:52:35.511Z,16.03
2022-12-17T18:55:03.451Z,13.07
2022-12-17T18:57:31.128Z,14.27
2022-12-17T18:59:58.788Z,14.67
2022-12-17T19:02:28.364Z,15.47
2022-12-17T19:04:56.059Z,12.43
2022-12-17T19:07:23.743Z,15.53
2022-12-17T19:09:51.573Z,15.77
2022-12-17T19:12:19.248Z,15.60
2022-12-17T19:14:47.149Z,14.20
2022-12-17T19:17:14.860Z,16.27
2022-12-17T19:19:43.890Z,13.80
2022-12-17T19:22:11.693Z,14.90
2022-12-17T19:24:39.377Z,14.20
2022-12-17T19:27:07.266Z,15.43
2022-12-17T19:29:35.074Z,14.97
2022-12-17T19:32:03.685Z,14.60
2022-12-17T19:34:32.331Z,14.30
2022-12-17T19:37:01.388Z,14.23
2022-12-17T19:39:29.158Z,17.40
2022-12-17T19:41:56.915Z,15.43
2022-12-17T19:44:25.079Z,17.30
2022-12-17T19:46:52.868Z,14.87
2022-12-17T19:49:20.609Z,16.20
2022-12-17T19:51:48.461Z,15.67
2022-12-17T19:54:17.502Z,14.17
2022-12-17T19:56:46.073Z,14.87
2022-12-17T19:59:14.730Z,15.33
2022-12-17T20:01:44.708Z,15.17
2022-12-17T20:04:14.347Z,14.37
2022-12-17T20:06:42.033Z,12.50
2022-12-17T20:09:10.053Z,15.50
2022-12-17T20:11:39.438Z,14.70
2022-12-17T20:14:11.606Z,12.63
2022-12-17T20:16:41.569Z,14.57
2022-12-17T20:19:12.193Z,14.03
2022-12-17T20:21:39.987Z,14.67
2022-12-17T20:24:08.382Z,14.83
2022-12-17T20:26:36.693Z,16.07
2022-12-17T20:29:09.430Z,16.23
2022-12-17T20:31:37.929Z,16.07
2022-12-17T20:34:09.744Z,14.47
2022-12-17T20:36:39.583Z,12.80
2022-12-17T20:39:07.831Z,15.40
2022-12-17T20:41:36.458Z,13.57
2022-12-17T20:44:07.208Z,14.10
2022-12-17T20:46:37.022Z,13.37
2022-12-17T20:49:06.461Z,13.90
2022-12-17T20:51:35.188Z,13.37
2022-12-17T20:54:05.137Z,13.93
2022-12-17T20:56:34.936Z,17.03
2022-12-17T20:59:04.778Z,16.00
2022-12-17T21:01:37.918Z,12.07
2022-12-17T21:04:07.831Z,13.63
2022-12-17T21:06:38.712Z,12.17
2022-12-17T21:09:07.606Z,12.97
2022-12-17T21:11:39.714Z,12.07
2022-12-17T21:14:10.885Z,13.50
2022-12-17T21:16:41.288Z,12.20
2022-12-17T21:19:10.431Z,11.83
2022-12-17T21:21:40.408Z,12.37
2022-12-17T21:24:10.556Z,12.63
2022-12-17T21:26:40.019Z,13.03
2022-12-17T21:29:09.596Z,12.80
2022-12-17T21:31:41.356Z,10.53
2022-12-17T21:34:12.817Z,10.30
2022-12-17T21:36:41.762Z,11.30
2022-12-17T21:39:13.701Z,11.57
2022-12-17T21:42:07.559Z,11.30
2022-12-17T21:44:37.614Z,11.03
2022-12-17T21:47:07.966Z,12.57
2022-12-17T21:49:45.097Z,13.30
2022-12-17T21:52:13.137Z,14.27
2022-12-17T21:54:41.784Z,13.67
2022-12-17T21:57:09.739Z,13.77
2022-12-17T21:59:37.741Z,14.27
2022-12-17T22:02:07.818Z,13.67
2022-12-17T22:04:35.788Z,12.70
2022-12-17T22:07:10.322Z,12.53
2022-12-17T22:09:54.980Z,13.73
2022-12-17T22:12:50.273Z,12.43
2022-12-17T22:15:18.972Z,13.03
2022-12-17T22:17:49.502Z,11.67
2022-12-17T22:20:18.299Z,12.03
2022-12-17T22:22:47.365Z,11.47
2022-12-17T22:25:17.499Z,13.23
2022-12-17T22:27:50.283Z,10.73
2022-12-17T22:30:43.195Z,11.83
2022-12-17T22:33:24.062Z,11.40
2022-12-17T22:37:40.178Z,12.27
2022-12-17T22:42:29.001Z,12.73
2022-12-17T22:44:29.477Z,12.97
2022-12-17T22:45:04.051Z,10.87
2022-12-17T22:47:36.547Z,11.47
2022-12-17T22:50:08.297Z,12.73
2022-12-17T22:52:37.416Z,12.20
2022-12-17T22:55:07.493Z,13.00
2022-12-17T22:57:38.256Z,12.83
2022-12-17T23:00:14.396Z,12.20
2022-12-17T23:02:42.671Z,12.60
2022-12-17T23:05:12.064Z,12.93
2022-12-17T23:07:40.490Z,12.13
2022-12-17T23:10:08.989Z,10.83
2022-12-17T23:12:52.590Z,12.77
2022-12-17T23:15:23.280Z,12.67
2022-12-17T23:17:51.468Z,11.83
2022-12-17T23:20:21.433Z,13.97
2022-12-17T23:22:49.258Z,11.93
2022-12-17T23:25:17.329Z,12.50
2022-12-17T23:27:46.980Z,10.97
2022-12-17T23:30:16.936Z,12.60
2022-12-17T23:32:45.433Z,11.73
2022-12-17T23:35:14.241Z,10.50
2022-12-17T23:37:43.819Z,8.63
2022-12-17T23:40:13.388Z,9.57
2022-12-17T23:42:41.089Z,10.97
2022-12-17T23:45:11.317Z,10.33
2022-12-17T23:47:39.690Z,11.33
2022-12-17T23:50:09.636Z,12.53
2022-12-17T23:52:38.945Z,12.67
2022-12-17T23:55:09.021Z,12.03
2022-12-17T23:57:36.676Z,10.50
